createdAt,value
2022-11-03T00:00:57.311Z,3.73
2022-11-03T00:01:57.369Z,3.65
2022-11-03T00:02:57.331Z,3.69
2022-11-03T00:03:57.271Z,3.68
2022-11-03T00:04:57.247Z,3.70
2022-11-03T00:05:57.270Z,3.63
2022-11-03T00:06:57.233Z,3.74
2022-11-03T00:07:57.222Z,3.66
2022-11-03T00:08:57.219Z,3.70
2022-11-03T00:09:57.213Z,3.69
2022-11-03T00:10:57.197Z,3.65
2022-11-03T00:11:57.218Z,3.56
2022-11-03T00:12:57.182Z,3.53
2022-11-03T00:13:57.227Z,3.56
2022-11-03T00:14:57.166Z,3.60
2022-11-03T00:15:57.198Z,3.60
2022-11-03T00:16:57.167Z,3.60
2022-11-03T00:17:57.156Z,3.60
2022-11-03T00:18:57.144Z,3.58
2022-11-03T00:19:57.140Z,3.63
2022-11-03T00:20:57.159Z,3.62
2022-11-03T00:21:57.111Z,3.41
2022-11-03T00:22:57.106Z,3.40
2022-11-03T00:23:57.101Z,3.28
2022-11-03T00:24:57.090Z,3.22
2022-11-03T00:25:57.088Z,3.26
2022-11-03T00:26:57.109Z,3.23
2022-11-03T00:27:57.118Z,3.22
2022-11-03T00:28:57.064Z,3.28
2022-11-03T00:29:57.055Z,3.21
2022-11-03T00:30:57.051Z,3.36
2022-11-03T00:31:57.060Z,3.28
2022-11-03T00:32:57.031Z,3.32
2022-11-03T00:33:57.026Z,3.29
2022-11-03T00:34:57.017Z,3.36
2022-11-03T00:35:57.008Z,3.31
2022-11-03T00:36:57.059Z,3.22
2022-11-03T00:37:56.989Z,3.34
2022-11-03T00:38:56.991Z,3.23
2022-11-03T00:39:56.982Z,3.25
2022-11-03T00:40:56.972Z,3.26
2022-11-03T00:41:56.991Z,3.37
2022-11-03T00:42:56.951Z,3.36
2022-11-03T00:43:56.942Z,3.31
2022-11-03T00:44:56.932Z,3.34
2022-11-03T00:45:56.939Z,3.37
2022-11-03T00:46:56.952Z,3.34
2022-11-03T00:47:56.943Z,3.28
2022-11-03T00:48:56.905Z,3.22
2022-11-03T00:49:56.897Z,3.29
2022-11-03T00:50:56.894Z,3.26
2022-11-03T00:51:56.911Z,3.23
2022-11-03T00:52:56.887Z,3.34
2022-11-03T00:53:56.873Z,3.25
2022-11-03T00:54:56.862Z,3.32
2022-11-03T00:55:56.855Z,3.22
2022-11-03T00:56:56.889Z,3.21
2022-11-03T00:57:56.839Z,3.18
2022-11-03T00:58:56.832Z,3.23
2022-11-03T00:59:56.830Z,3.11
2022-11-03T01:00:56.892Z,3.19
2022-11-03T01:01:56.929Z,3.14
2022-11-03T01:02:56.800Z,3.26
2022-11-03T01:03:56.808Z,3.36
2022-11-03T01:04:56.793Z,3.37
2022-11-03T01:05:56.824Z,3.25
2022-11-03T01:06:56.805Z,3.11
2022-11-03T01:07:56.799Z,3.22
2022-11-03T01:08:56.759Z,3.18
2022-11-03T01:09:56.763Z,3.16
2022-11-03T01:10:56.751Z,3.21
2022-11-03T01:11:56.771Z,3.08
2022-11-03T01:12:56.734Z,3.11
2022-11-03T01:13:56.728Z,3.04
2022-11-03T01:14:56.719Z,2.97
2022-11-03T01:15:56.787Z,3.07
2022-11-03T01:16:56.733Z,2.92
2022-11-03T01:17:56.722Z,2.82
2022-11-03T01:18:56.688Z,2.97
2022-11-03T01:19:56.674Z,2.87
2022-11-03T01:20:56.660Z,2.86
2022-11-03T01:21:57.694Z,2.86
2022-11-03T01:22:56.650Z,2.72
2022-11-03T01:23:56.644Z,2.77
2022-11-03T01:24:56.649Z,2.75
2022-11-03T01:25:56.628Z,2.74
2022-11-03T01:26:56.648Z,2.87
2022-11-03T01:27:56.666Z,2.85
2022-11-03T01:28:56.611Z,2.90
2022-11-03T01:29:56.596Z,2.87
2022-11-03T01:30:56.595Z,2.93
2022-11-03T01:31:56.617Z,2.90
2022-11-03T01:32:56.577Z,2.97
2022-11-03T01:33:56.571Z,2.90
2022-11-03T01:34:56.561Z,2.97
2022-11-03T01:35:56.561Z,2.95
2022-11-03T01:36:56.575Z,2.89
2022-11-03T01:37:56.555Z,2.95
2022-11-03T01:38:56.540Z,2.82
2022-11-03T01:39:56.529Z,2.77
2022-11-03T01:40:56.523Z,2.80
2022-11-03T01:41:56.605Z,2.89
2022-11-03T01:42:56.515Z,2.83
2022-11-03T01:43:56.510Z,2.82
2022-11-03T01:44:56.492Z,2.74
2022-11-03T01:45:56.489Z,2.79
2022-11-03T01:46:56.507Z,2.89
2022-11-03T01:47:56.465Z,2.90
2022-11-03T01:48:56.463Z,2.80
2022-11-03T01:49:56.453Z,2.87
2022-11-03T01:50:56.448Z,2.85
2022-11-03T01:51:56.476Z,2.83
2022-11-03T01:52:56.435Z,2.83
2022-11-03T01:53:56.491Z,2.72
2022-11-03T01:54:56.426Z,2.72
2022-11-03T01:55:56.415Z,2.56
2022-11-03T01:56:56.409Z,2.51
2022-11-03T01:57:56.417Z,2.49
2022-11-03T01:58:56.389Z,2.49
2022-11-03T01:59:56.385Z,2.57
2022-11-03T02:00:56.396Z,2.57
2022-11-03T02:01:56.515Z,2.68
2022-11-03T02:02:56.368Z,2.62
2022-11-03T02:03:56.354Z,2.60
2022-11-03T02:04:56.352Z,2.68
2022-11-03T02:05:56.325Z,2.61
2022-11-03T02:06:57.375Z,2.69
2022-11-03T02:07:56.411Z,2.65
2022-11-03T02:08:56.321Z,2.68
2022-11-03T02:09:56.316Z,2.64
2022-11-03T02:10:56.302Z,2.61
2022-11-03T02:11:56.317Z,2.65
2022-11-03T02:12:56.289Z,2.77
2022-11-03T02:13:56.283Z,2.74
2022-11-03T02:14:56.269Z,2.86
2022-11-03T02:15:56.263Z,2.80
2022-11-03T02:16:56.283Z,2.80
2022-11-03T02:17:56.246Z,2.80
2022-11-03T02:18:56.310Z,2.71
2022-11-03T02:19:56.236Z,2.83
2022-11-03T02:20:56.223Z,2.62
2022-11-03T02:21:56.243Z,2.67
2022-11-03T02:22:56.208Z,2.62
2022-11-03T02:23:56.209Z,2.51
2022-11-03T02:24:56.191Z,2.50
2022-11-03T02:25:56.206Z,2.38
2022-11-03T02:26:56.200Z,2.47
2022-11-03T02:27:56.168Z,2.54
2022-11-03T02:28:56.172Z,2.49
2022-11-03T02:29:56.160Z,2.51
2022-11-03T02:30:56.153Z,2.50
2022-11-03T02:31:56.173Z,2.54
2022-11-03T02:32:56.140Z,2.60
2022-11-03T02:33:56.148Z,2.69
2022-11-03T02:34:56.122Z,2.71
2022-11-03T02:35:56.116Z,2.60
2022-11-03T02:36:56.107Z,2.72
2022-11-03T02:37:56.132Z,2.80
2022-11-03T02:38:56.091Z,2.92
2022-11-03T02:39:56.089Z,2.85
2022-11-03T02:40:56.074Z,2.90
2022-11-03T02:41:56.079Z,2.97
2022-11-03T02:42:56.085Z,2.74
2022-11-03T02:43:56.048Z,2.79
2022-11-03T02:44:56.055Z,2.79
2022-11-03T02:45:56.050Z,2.74
2022-11-03T02:46:56.058Z,2.86
2022-11-03T02:47:56.017Z,2.83
2022-11-03T02:48:56.014Z,2.83
2022-11-03T02:50:57.002Z,2.92
2022-11-03T02:51:56.029Z,2.92
2022-11-03T02:52:55.984Z,2.92
2022-11-03T02:53:55.976Z,2.97
2022-11-03T02:54:55.969Z,2.95
2022-11-03T02:55:55.962Z,2.97
2022-11-03T02:56:55.980Z,2.93
2022-11-03T02:57:55.947Z,2.97
2022-11-03T02:58:55.932Z,2.89
2022-11-03T02:59:55.936Z,2.97
2022-11-03T03:00:55.964Z,3.01
2022-11-03T03:01:56.036Z,3.01
2022-11-03T03:02:55.906Z,3.03
2022-11-03T03:03:55.901Z,3.03
2022-11-03T03:04:55.881Z,3.07
2022-11-03T03:05:55.880Z,2.97
2022-11-03T03:06:55.899Z,3.03
2022-11-03T03:07:55.872Z,3.10
2022-11-03T03:08:55.857Z,2.97
2022-11-03T03:09:55.854Z,3.00
2022-11-03T03:10:55.850Z,2.98
2022-11-03T03:11:55.860Z,3.04
2022-11-03T03:12:55.827Z,3.11
2022-11-03T03:13:55.820Z,3.11
2022-11-03T03:14:55.829Z,3.14
2022-11-03T03:15:55.804Z,3.16
2022-11-03T03:16:55.817Z,3.23
2022-11-03T03:17:55.794Z,3.21
2022-11-03T03:18:55.777Z,3.22
2022-11-03T03:19:55.789Z,3.23
2022-11-03T03:20:55.772Z,3.16
2022-11-03T03:21:55.782Z,3.31
2022-11-03T03:22:55.753Z,3.32
2022-11-03T03:23:55.748Z,3.31
2022-11-03T03:24:55.742Z,3.31
2022-11-03T03:25:55.718Z,3.37
2022-11-03T03:26:56.766Z,3.29
2022-11-03T03:27:55.722Z,3.28
2022-11-03T03:28:55.710Z,3.40
2022-11-03T03:29:55.734Z,3.44
2022-11-03T03:30:55.707Z,3.40
2022-11-03T03:31:55.713Z,3.31
2022-11-03T03:32:55.675Z,3.37
2022-11-03T03:34:04.463Z,3.34
2022-11-03T03:34:57.657Z,3.34
2022-11-03T03:35:55.655Z,3.31
2022-11-03T03:36:55.648Z,3.21
2022-11-03T03:37:55.668Z,3.19
2022-11-03T03:38:55.635Z,3.16
2022-11-03T03:39:56.468Z,3.19
2022-11-03T03:40:55.685Z,3.16
2022-11-03T03:41:55.608Z,3.16
2022-11-03T03:42:55.646Z,3.14
2022-11-03T03:43:55.602Z,3.23
2022-11-03T03:44:55.584Z,3.16
2022-11-03T03:45:55.582Z,3.11
2022-11-03T03:46:55.569Z,3.21
2022-11-03T03:47:57.807Z,3.42
2022-11-03T03:48:57.561Z,3.40
2022-11-03T03:49:55.548Z,3.34
2022-11-03T03:50:55.558Z,3.45
2022-11-03T03:51:55.564Z,3.41
2022-11-03T03:52:55.536Z,3.55
2022-11-03T03:53:55.520Z,3.47
2022-11-03T03:54:55.516Z,3.50
2022-11-03T03:55:55.532Z,3.51
2022-11-03T03:56:55.490Z,3.53
2022-11-03T03:57:59.426Z,3.56
2022-11-03T03:58:55.483Z,3.74
2022-11-03T03:59:55.479Z,3.73
2022-11-03T04:00:55.551Z,3.58
2022-11-03T04:01:55.580Z,3.55
2022-11-03T04:02:55.474Z,3.53
2022-11-03T04:03:55.449Z,3.51
2022-11-03T04:04:55.435Z,3.48
2022-11-03T04:05:55.424Z,3.48
2022-11-03T04:06:55.449Z,3.55
2022-11-03T04:07:55.440Z,3.50
2022-11-03T04:08:55.408Z,3.55
2022-11-03T04:09:55.512Z,3.60
2022-11-03T04:10:55.396Z,3.62
2022-11-03T04:11:55.372Z,3.48
2022-11-03T04:12:56.403Z,3.62
2022-11-03T04:13:55.367Z,3.59
2022-11-03T04:14:55.377Z,3.69
2022-11-03T04:15:55.355Z,3.77
2022-11-03T04:16:55.343Z,3.73
2022-11-03T04:17:55.367Z,3.68
2022-11-03T04:18:55.320Z,3.74
2022-11-03T04:19:55.326Z,3.73
2022-11-03T04:20:55.317Z,3.78
2022-11-03T04:21:55.322Z,3.76
2022-11-03T04:22:55.325Z,3.62
2022-11-03T04:23:55.294Z,3.69
2022-11-03T04:24:55.294Z,3.69
2022-11-03T04:25:55.286Z,3.65
2022-11-03T04:26:55.269Z,3.84
2022-11-03T04:27:55.293Z,3.83
2022-11-03T04:28:55.287Z,3.94
2022-11-03T04:29:55.250Z,3.78
2022-11-03T04:30:57.746Z,3.81
2022-11-03T04:31:55.229Z,3.84
2022-11-03T04:32:55.246Z,3.83
2022-11-03T04:33:55.213Z,3.78
2022-11-03T04:34:55.201Z,3.81
2022-11-03T04:35:55.198Z,3.81
2022-11-03T04:36:55.189Z,3.84
2022-11-03T04:37:55.213Z,3.87
2022-11-03T04:38:55.172Z,3.84
2022-11-03T04:39:55.169Z,3.66
2022-11-03T04:40:55.255Z,3.80
2022-11-03T04:41:55.148Z,3.68
2022-11-03T04:42:55.171Z,3.76
2022-11-03T04:43:55.137Z,3.65
2022-11-03T04:44:55.125Z,3.65
2022-11-03T04:45:55.126Z,3.60
2022-11-03T04:46:55.114Z,3.53
2022-11-03T04:47:56.132Z,3.62
2022-11-03T04:48:55.100Z,3.56
2022-11-03T04:49:55.101Z,3.69
2022-11-03T04:50:55.082Z,3.58
2022-11-03T04:51:55.077Z,3.53
2022-11-03T04:52:55.106Z,3.62
2022-11-03T04:53:55.064Z,3.48
2022-11-03T04:54:55.364Z,3.37
2022-11-03T04:55:55.046Z,3.29
2022-11-03T04:56:55.041Z,3.25
2022-11-03T04:57:55.052Z,3.11
2022-11-03T04:58:55.022Z,3.19
2022-11-03T04:59:55.018Z,3.13
2022-11-03T05:00:55.098Z,3.05
2022-11-03T05:01:55.205Z,3.10
2022-11-03T05:02:56.460Z,3.10
2022-11-03T05:03:55.000Z,3.11
2022-11-03T05:04:54.994Z,3.21
2022-11-03T05:05:54.968Z,3.13
2022-11-03T05:06:54.990Z,3.18
2022-11-03T05:07:55.049Z,3.23
2022-11-03T05:08:54.970Z,3.21
2022-11-03T05:09:54.955Z,3.21
2022-11-03T05:10:54.945Z,3.28
2022-11-03T05:11:54.950Z,3.32
2022-11-03T05:12:54.961Z,3.34
2022-11-03T05:13:54.910Z,3.40
2022-11-03T05:14:58.695Z,3.32
2022-11-03T05:15:55.892Z,3.45
2022-11-03T05:16:54.886Z,3.37
2022-11-03T05:17:54.930Z,3.42
2022-11-03T05:18:54.871Z,3.51
2022-11-03T05:19:54.861Z,3.45
2022-11-03T05:20:54.852Z,3.40
2022-11-03T05:21:54.848Z,3.45
2022-11-03T05:22:54.910Z,3.53
2022-11-03T05:23:54.863Z,3.53
2022-11-03T05:24:54.831Z,3.58
2022-11-03T05:25:54.813Z,3.51
2022-11-03T05:26:54.841Z,3.48
2022-11-03T05:27:54.801Z,3.47
2022-11-03T05:28:54.803Z,3.48
2022-11-03T05:29:57.819Z,3.50
2022-11-03T05:30:55.774Z,3.47
2022-11-03T05:31:54.811Z,3.48
2022-11-03T05:32:54.760Z,3.56
2022-11-03T05:33:54.762Z,3.51
2022-11-03T05:34:54.765Z,3.53
2022-11-03T05:35:54.744Z,3.65
2022-11-03T05:36:54.772Z,3.63
2022-11-03T05:37:54.720Z,3.58
2022-11-03T05:38:54.723Z,3.69
2022-11-03T05:39:54.712Z,3.69
2022-11-03T05:40:54.711Z,3.66
2022-11-03T05:41:54.704Z,3.60
2022-11-03T05:42:54.714Z,3.68
2022-11-03T05:43:54.669Z,3.65
2022-11-03T05:44:55.678Z,3.74
2022-11-03T05:45:54.727Z,3.74
2022-11-03T05:46:54.690Z,3.68
2022-11-03T05:47:54.645Z,3.70
2022-11-03T05:48:54.637Z,3.73
2022-11-03T05:49:54.638Z,3.74
2022-11-03T05:50:54.625Z,3.73
2022-11-03T05:51:54.666Z,3.69
2022-11-03T05:52:54.615Z,3.78
2022-11-03T05:53:54.609Z,3.80
2022-11-03T05:54:54.596Z,3.76
2022-11-03T05:55:54.593Z,3.66
2022-11-03T05:56:54.618Z,3.73
2022-11-03T05:57:54.570Z,3.84
2022-11-03T05:58:54.564Z,3.84
2022-11-03T05:59:55.564Z,3.81
2022-11-03T06:00:54.563Z,3.87
2022-11-03T06:01:54.705Z,3.70
2022-11-03T06:02:54.685Z,3.68
2022-11-03T06:03:54.529Z,3.77
2022-11-03T06:04:54.526Z,3.66
2022-11-03T06:05:54.518Z,3.83
2022-11-03T06:06:54.551Z,3.86
2022-11-03T06:07:54.504Z,3.74
2022-11-03T06:08:54.494Z,3.87
2022-11-03T06:09:54.487Z,3.86
2022-11-03T06:10:54.483Z,3.94
2022-11-03T06:11:54.505Z,3.92
2022-11-03T06:12:54.466Z,3.86
2022-11-03T06:13:54.459Z,3.91
2022-11-03T06:14:54.447Z,3.95
2022-11-03T06:15:54.445Z,3.92
2022-11-03T06:16:54.462Z,3.94
2022-11-03T06:17:54.460Z,3.94
2022-11-03T06:18:54.546Z,3.92
2022-11-03T06:19:54.424Z,3.87
2022-11-03T06:20:54.415Z,3.95
2022-11-03T06:21:54.409Z,3.88
2022-11-03T06:22:55.423Z,3.91
2022-11-03T06:23:54.403Z,3.84
2022-11-03T06:24:54.375Z,3.91
2022-11-03T06:25:54.368Z,3.88
2022-11-03T06:26:54.360Z,3.86
2022-11-03T06:27:54.388Z,3.88
2022-11-03T06:28:54.345Z,3.84
2022-11-03T06:29:54.341Z,3.80
2022-11-03T06:30:54.332Z,3.86
2022-11-03T06:31:54.324Z,3.94
2022-11-03T06:32:54.357Z,3.88
2022-11-03T06:33:54.326Z,3.84
2022-11-03T06:34:54.306Z,3.84
2022-11-03T06:35:54.434Z,3.94
2022-11-03T06:36:54.286Z,3.78
2022-11-03T06:37:54.336Z,3.95
2022-11-03T06:38:54.285Z,3.95
2022-11-03T06:39:54.293Z,3.99
2022-11-03T06:40:54.264Z,4.02
2022-11-03T06:41:54.241Z,3.91
2022-11-03T06:42:54.271Z,3.94
2022-11-03T06:43:54.240Z,3.98
2022-11-03T06:44:54.323Z,4.01
2022-11-03T06:45:54.227Z,3.92
2022-11-03T06:46:54.211Z,3.99
2022-11-03T06:47:54.223Z,4.01
2022-11-03T06:48:54.195Z,4.10
2022-11-03T06:49:54.187Z,4.10
2022-11-03T06:50:54.189Z,4.14
2022-11-03T06:51:54.174Z,4.12
2022-11-03T06:52:54.201Z,4.06
2022-11-03T06:53:54.160Z,4.17
2022-11-03T06:54:54.162Z,4.05
2022-11-03T06:55:54.137Z,4.04
2022-11-03T06:56:54.146Z,4.12
2022-11-03T06:57:54.165Z,4.08
2022-11-03T06:58:54.166Z,4.12
2022-11-03T07:00:06.810Z,4.16
2022-11-03T07:01:02.641Z,4.16
2022-11-03T07:01:56.268Z,4.17
2022-11-03T07:02:54.127Z,4.19
2022-11-03T07:03:54.102Z,4.14
2022-11-03T07:04:54.094Z,4.20
2022-11-03T07:05:54.122Z,4.20
2022-11-03T07:06:54.970Z,4.19
2022-11-03T07:07:54.077Z,4.20
2022-11-03T07:08:54.042Z,4.30
2022-11-03T07:09:54.043Z,4.37
2022-11-03T07:10:54.034Z,4.37
2022-11-03T07:11:54.013Z,4.35
2022-11-03T07:12:55.036Z,4.45
2022-11-03T07:13:54.004Z,4.26
2022-11-03T07:14:54.062Z,4.28
2022-11-03T07:15:53.990Z,4.20
2022-11-03T07:16:53.985Z,4.30
2022-11-03T07:17:54.002Z,4.19
2022-11-03T07:18:53.974Z,4.16
2022-11-03T07:19:53.966Z,4.06
2022-11-03T07:20:53.952Z,4.13
2022-11-03T07:21:53.961Z,4.12
2022-11-03T07:22:53.966Z,4.14
2022-11-03T07:23:53.933Z,4.12
2022-11-03T07:24:53.928Z,4.02
2022-11-03T07:25:53.927Z,4.12
2022-11-03T07:26:53.908Z,4.12
2022-11-03T07:27:53.929Z,4.20
2022-11-03T07:28:53.902Z,4.32
2022-11-03T07:29:53.896Z,4.23
2022-11-03T07:30:53.915Z,4.32
2022-11-03T07:31:53.874Z,4.34
2022-11-03T07:32:53.889Z,4.44
2022-11-03T07:33:53.863Z,4.32
2022-11-03T07:34:53.850Z,4.30
2022-11-03T07:36:14.408Z,4.37
2022-11-03T07:36:56.261Z,4.34
2022-11-03T07:37:54.861Z,4.31
2022-11-03T07:38:53.833Z,4.16
2022-11-03T07:39:53.851Z,4.28
2022-11-03T07:40:53.812Z,4.32
2022-11-03T07:41:53.797Z,4.41
2022-11-03T07:42:53.884Z,4.41
2022-11-03T07:43:53.786Z,4.41
2022-11-03T07:44:53.779Z,4.44
2022-11-03T07:45:53.771Z,4.50
2022-11-03T07:46:53.778Z,4.53
2022-11-03T07:47:53.785Z,4.58
2022-11-03T07:48:53.747Z,4.52
2022-11-03T07:49:53.743Z,4.56
2022-11-03T07:50:53.745Z,4.58
2022-11-03T07:51:53.726Z,4.55
2022-11-03T07:52:53.748Z,4.66
2022-11-03T07:53:53.708Z,4.63
2022-11-03T07:54:53.706Z,4.62
2022-11-03T07:55:53.775Z,4.59
2022-11-03T07:56:53.693Z,4.59
2022-11-03T07:57:53.692Z,4.74
2022-11-03T07:58:54.682Z,4.92
2022-11-03T07:59:53.664Z,5.07
2022-11-03T08:00:53.670Z,4.99
2022-11-03T08:01:53.783Z,5.10
2022-11-03T08:02:53.736Z,5.15
2022-11-03T08:03:53.632Z,5.12
2022-11-03T08:04:53.633Z,5.14
2022-11-03T08:05:53.631Z,5.17
2022-11-03T08:06:53.607Z,5.23
2022-11-03T08:07:53.631Z,5.28
2022-11-03T08:08:53.595Z,5.20
2022-11-03T08:09:53.585Z,5.11
2022-11-03T08:10:53.579Z,5.04
2022-11-03T08:11:53.584Z,5.02
2022-11-03T08:12:53.594Z,5.08
2022-11-03T08:13:53.556Z,5.17
2022-11-03T08:14:53.551Z,5.23
2022-11-03T08:15:53.552Z,5.26
2022-11-03T08:16:53.528Z,5.18
2022-11-03T08:17:56.113Z,5.38
2022-11-03T08:18:54.516Z,5.38
2022-11-03T08:19:53.505Z,5.57
2022-11-03T08:20:53.498Z,5.61
2022-11-03T08:21:53.498Z,5.66
2022-11-03T08:23:19.689Z,5.66
2022-11-03T08:23:55.472Z,5.64
2022-11-03T08:24:53.469Z,5.56
2022-11-03T08:25:53.457Z,5.61
2022-11-03T08:26:53.464Z,5.69
2022-11-03T08:27:53.467Z,5.72
2022-11-03T08:28:53.448Z,5.89
2022-11-03T08:29:53.432Z,5.75
2022-11-03T08:30:53.426Z,5.82
2022-11-03T08:31:53.427Z,5.69
2022-11-03T08:32:53.437Z,5.83
2022-11-03T08:33:53.402Z,5.83
2022-11-03T08:34:53.393Z,5.93
2022-11-03T08:35:53.387Z,5.89
2022-11-03T08:36:53.373Z,6.01
2022-11-03T08:37:53.397Z,6.07
2022-11-03T08:38:53.387Z,6.09
2022-11-03T08:39:53.355Z,6.14
2022-11-03T08:40:55.306Z,6.20
2022-11-03T08:41:53.342Z,6.27
2022-11-03T08:42:53.339Z,6.38
2022-11-03T08:43:53.356Z,6.31
2022-11-03T08:44:53.357Z,6.42
2022-11-03T08:45:53.304Z,6.31
2022-11-03T08:46:53.307Z,6.46
2022-11-03T08:47:53.290Z,6.56
2022-11-03T08:48:53.303Z,6.75
2022-11-03T08:49:54.273Z,6.88
2022-11-03T08:50:53.267Z,6.88
2022-11-03T08:51:54.278Z,7.11
2022-11-03T08:52:53.255Z,7.17
2022-11-03T08:53:53.276Z,7.28
2022-11-03T08:54:53.275Z,7.33
2022-11-03T08:55:53.226Z,7.56
2022-11-03T08:56:53.229Z,7.69
2022-11-03T08:57:53.215Z,7.80
2022-11-03T08:58:53.238Z,7.75
2022-11-03T08:59:53.199Z,7.80
2022-11-03T09:00:53.197Z,7.95
2022-11-03T09:01:53.346Z,8.00
2022-11-03T09:02:53.177Z,8.09
2022-11-03T09:03:53.232Z,8.16
2022-11-03T09:04:53.170Z,8.41
2022-11-03T09:05:53.157Z,8.44
2022-11-03T09:06:53.143Z,8.64
2022-11-03T09:10:30.000Z,8.70
2022-11-03T09:10:55.130Z,8.81
2022-11-03T09:11:53.112Z,8.87
2022-11-03T09:12:53.101Z,8.82
2022-11-03T09:13:53.136Z,8.73
2022-11-03T09:14:53.095Z,8.74
2022-11-03T09:15:53.081Z,8.66
2022-11-03T09:16:53.111Z,8.64
2022-11-03T09:17:53.075Z,8.61
2022-11-03T09:18:53.081Z,8.73
2022-11-03T09:19:53.047Z,8.94
2022-11-03T09:20:53.045Z,8.89
2022-11-03T09:21:53.032Z,9.02
2022-11-03T09:22:53.035Z,9.03
2022-11-03T09:23:53.053Z,9.06
2022-11-03T09:24:53.012Z,9.25
2022-11-03T09:25:53.025Z,9.16
2022-11-03T09:26:53.005Z,9.19
2022-11-03T09:27:52.990Z,9.25
2022-11-03T09:28:53.007Z,9.23
2022-11-03T09:30:12.339Z,9.31
2022-11-03T09:30:54.973Z,9.26
2022-11-03T09:31:52.959Z,9.26
2022-11-03T09:32:52.958Z,9.34
2022-11-03T09:33:52.973Z,9.43
2022-11-03T09:34:52.972Z,9.22
2022-11-03T09:35:52.934Z,9.39
2022-11-03T09:36:53.427Z,9.54
2022-11-03T09:37:53.920Z,9.62
2022-11-03T09:38:52.930Z,9.72
2022-11-03T09:39:52.901Z,9.79
2022-11-03T09:40:52.900Z,9.94
2022-11-03T09:41:58.733Z,9.94
2022-11-03T09:42:55.055Z,9.83
2022-11-03T09:43:52.894Z,9.92
2022-11-03T09:44:52.864Z,10.07
2022-11-03T09:45:52.852Z,10.10
2022-11-03T09:46:58.086Z,10.19
2022-11-03T09:47:54.835Z,10.15
2022-11-03T09:48:52.861Z,10.05
2022-11-03T09:49:52.829Z,10.07
2022-11-03T09:50:52.814Z,9.98
2022-11-03T09:51:52.813Z,9.77
2022-11-03T09:52:52.802Z,9.72
2022-11-03T09:53:52.818Z,9.95
2022-11-03T09:54:52.788Z,10.26
2022-11-03T09:55:52.800Z,10.51
2022-11-03T09:56:52.774Z,10.61
2022-11-03T09:57:52.772Z,10.79
2022-11-03T09:58:54.537Z,10.87
2022-11-03T09:59:53.755Z,11.05
2022-11-03T10:00:52.855Z,11.25
2022-11-03T10:01:52.833Z,11.33
2022-11-03T10:02:52.722Z,11.35
2022-11-03T10:03:52.746Z,11.48
2022-11-03T10:04:52.769Z,11.50
2022-11-03T10:05:52.705Z,11.23
2022-11-03T10:06:52.705Z,11.17
2022-11-03T10:07:52.697Z,11.07
2022-11-03T10:08:52.708Z,11.04
2022-11-03T10:09:52.673Z,11.17
2022-11-03T10:10:52.679Z,11.37
2022-11-03T10:11:52.654Z,11.50
2022-11-03T10:12:52.645Z,11.40
2022-11-03T10:13:52.681Z,11.33
2022-11-03T10:14:52.647Z,11.37
2022-11-03T10:15:52.626Z,11.29
2022-11-03T10:16:53.568Z,11.41
2022-11-03T10:17:52.628Z,11.48
2022-11-03T10:18:52.633Z,11.52
2022-11-03T10:19:52.599Z,11.59
2022-11-03T10:20:52.590Z,11.65
2022-11-03T10:21:52.590Z,11.78
2022-11-03T10:22:52.583Z,11.80
2022-11-03T10:23:52.592Z,11.90
2022-11-03T10:24:52.562Z,12.09
2022-11-03T10:25:52.549Z,12.27
2022-11-03T10:26:52.545Z,12.24
2022-11-03T10:27:53.540Z,12.28
2022-11-03T10:28:52.563Z,12.10
2022-11-03T10:29:56.434Z,12.09
2022-11-03T10:31:11.937Z,12.13
2022-11-03T10:31:54.510Z,12.18
2022-11-03T10:32:52.515Z,12.28
2022-11-03T10:33:52.533Z,12.27
2022-11-03T10:34:52.488Z,12.37
2022-11-03T10:35:52.483Z,12.32
2022-11-03T10:36:52.475Z,12.45
2022-11-03T10:37:52.469Z,12.50
2022-11-03T10:38:52.491Z,12.61
2022-11-03T10:39:52.450Z,12.80
2022-11-03T10:40:52.447Z,12.27
2022-11-03T10:41:52.421Z,11.88
2022-11-03T10:42:53.427Z,11.84
2022-11-03T10:43:52.448Z,11.88
2022-11-03T10:44:52.406Z,11.81
2022-11-03T10:45:52.398Z,11.86
2022-11-03T10:46:52.454Z,11.94
2022-11-03T10:47:55.610Z,12.00
2022-11-03T10:48:53.573Z,11.84
2022-11-03T10:49:52.374Z,11.91
2022-11-03T10:50:52.367Z,12.06
2022-11-03T10:51:52.534Z,12.15
2022-11-03T10:52:52.359Z,12.35
2022-11-03T10:53:52.372Z,12.43
2022-11-03T10:54:52.326Z,12.31
2022-11-03T10:55:52.323Z,12.04
2022-11-03T10:56:52.347Z,11.97
2022-11-03T10:57:53.197Z,12.12
2022-11-03T10:58:52.360Z,12.07
2022-11-03T10:59:52.290Z,12.06
2022-11-03T11:00:52.366Z,12.06
2022-11-03T11:01:52.345Z,12.12
2022-11-03T11:02:52.264Z,12.18
2022-11-03T11:03:52.348Z,12.18
2022-11-03T11:04:52.261Z,12.00
2022-11-03T11:05:52.248Z,12.25
2022-11-03T11:06:52.243Z,12.32
2022-11-03T11:07:52.287Z,12.47
2022-11-03T11:08:56.001Z,12.54
2022-11-03T11:09:54.231Z,12.60
2022-11-03T11:10:52.213Z,12.68
2022-11-03T11:11:52.202Z,12.60
2022-11-03T11:12:52.188Z,12.76
2022-11-03T11:13:52.221Z,12.80
2022-11-03T11:14:52.178Z,13.00
2022-11-03T11:15:52.192Z,13.27
2022-11-03T11:16:52.159Z,13.46
2022-11-03T11:17:52.156Z,13.75
2022-11-03T11:18:52.145Z,13.92
2022-11-03T11:19:52.171Z,13.86
2022-11-03T11:20:52.130Z,14.03
2022-11-03T11:21:52.125Z,14.11
2022-11-03T11:22:52.121Z,14.26
2022-11-03T11:23:52.107Z,14.26
2022-11-03T11:24:52.124Z,14.33
2022-11-03T11:25:52.089Z,14.41
2022-11-03T11:26:52.147Z,14.45
2022-11-03T11:27:55.558Z,14.36
2022-11-03T11:28:54.068Z,14.43
2022-11-03T11:29:52.098Z,14.23
2022-11-03T11:30:52.047Z,14.41
2022-11-03T11:31:52.031Z,14.43
2022-11-03T11:32:53.047Z,14.47
2022-11-03T11:33:52.027Z,14.54
2022-11-03T11:34:52.065Z,14.51
2022-11-03T11:35:56.495Z,14.63
2022-11-03T11:36:54.009Z,14.50
2022-11-03T11:37:51.995Z,14.55
2022-11-03T11:38:51.995Z,14.47
2022-11-03T11:39:52.009Z,14.65
2022-11-03T11:40:51.972Z,14.77
2022-11-03T11:41:51.973Z,14.72
2022-11-03T11:42:51.969Z,14.69
2022-11-03T11:43:51.970Z,14.85
2022-11-03T11:44:52.087Z,14.86
2022-11-03T11:45:51.939Z,14.96
2022-11-03T11:46:51.943Z,14.85
2022-11-03T11:47:51.926Z,14.94
2022-11-03T11:48:51.922Z,14.85
2022-11-03T11:49:51.956Z,15.00
2022-11-03T11:50:51.903Z,15.09
2022-11-03T11:51:51.893Z,15.03
2022-11-03T11:52:51.883Z,14.99
2022-11-03T11:54:16.262Z,15.04
2022-11-03T11:54:52.901Z,15.04
2022-11-03T11:55:51.868Z,15.02
2022-11-03T11:56:51.856Z,15.03
2022-11-03T11:57:51.884Z,14.99
2022-11-03T11:58:51.843Z,15.00
2022-11-03T11:59:51.878Z,15.00
2022-11-03T12:00:51.841Z,15.07
2022-11-03T12:01:51.884Z,14.96
2022-11-03T12:02:51.813Z,15.02
2022-11-03T12:03:51.920Z,15.03
2022-11-03T12:04:51.825Z,15.00
2022-11-03T12:05:51.784Z,14.97
2022-11-03T12:06:51.783Z,14.96
2022-11-03T12:07:51.757Z,14.81
2022-11-03T12:08:52.767Z,14.88
2022-11-03T12:09:51.781Z,14.97
2022-11-03T12:10:51.781Z,14.96
2022-11-03T12:11:55.328Z,14.85
2022-11-03T12:12:52.736Z,14.88
2022-11-03T12:13:51.733Z,15.04
2022-11-03T12:14:51.750Z,14.97
2022-11-03T12:15:51.715Z,14.91
2022-11-03T12:16:51.709Z,14.94
2022-11-03T12:17:51.699Z,14.88
2022-11-03T12:18:51.700Z,14.85
2022-11-03T12:19:51.707Z,14.88
2022-11-03T12:20:51.678Z,14.89
2022-11-03T12:21:51.679Z,14.94
2022-11-03T12:22:51.675Z,14.85
2022-11-03T12:23:51.650Z,14.77
2022-11-03T12:24:51.665Z,14.77
2022-11-03T12:25:52.647Z,14.84
2022-11-03T12:26:51.632Z,14.77
2022-11-03T12:27:51.621Z,14.73
2022-11-03T12:28:51.627Z,14.88
2022-11-03T12:29:51.633Z,14.94
2022-11-03T12:30:51.644Z,15.04
2022-11-03T12:31:51.595Z,15.14
2022-11-03T12:32:51.586Z,15.19
2022-11-03T12:33:51.578Z,15.06
2022-11-03T12:34:51.599Z,15.14
2022-11-03T12:35:51.570Z,15.28
2022-11-03T12:36:55.927Z,15.19
2022-11-03T12:37:52.548Z,15.07
2022-11-03T12:38:51.545Z,15.15
2022-11-03T12:39:51.557Z,15.15
2022-11-03T12:40:52.528Z,15.22
2022-11-03T12:41:51.581Z,14.97
2022-11-03T12:42:51.504Z,15.00
2022-11-03T12:43:51.552Z,15.07
2022-11-03T12:44:51.528Z,15.07
2022-11-03T12:45:51.487Z,15.06
2022-11-03T12:46:51.482Z,15.15
2022-11-03T12:47:51.502Z,15.14
2022-11-03T12:48:51.471Z,15.25
2022-11-03T12:49:51.487Z,15.25
2022-11-03T12:50:51.456Z,15.19
2022-11-03T12:51:51.447Z,15.22
2022-11-03T12:52:51.470Z,15.21
2022-11-03T12:53:51.440Z,15.17
2022-11-03T12:54:51.437Z,15.28
2022-11-03T12:55:51.412Z,15.28
2022-11-03T12:56:51.421Z,15.18
2022-11-03T12:57:51.436Z,15.06
2022-11-03T12:58:51.388Z,15.04
2022-11-03T12:59:51.382Z,14.96
2022-11-03T13:00:54.974Z,15.02
2022-11-03T13:01:53.447Z,14.96
2022-11-03T13:02:51.506Z,14.99
2022-11-03T13:03:51.374Z,15.00
2022-11-03T13:04:51.347Z,14.99
2022-11-03T13:05:51.347Z,14.94
2022-11-03T13:06:51.330Z,14.85
2022-11-03T13:07:51.344Z,14.77
2022-11-03T13:08:53.241Z,14.89
2022-11-03T13:09:51.296Z,14.84
2022-11-03T13:10:52.301Z,14.85
2022-11-03T13:11:51.293Z,14.94
2022-11-03T13:12:51.310Z,14.89
2022-11-03T13:13:51.324Z,14.89
2022-11-03T13:14:51.270Z,14.72